Time;durP1;ratioP1;P1;durP2;ratioP2;P2;SDS_P1;SDS_P2;PMS_P1;PMS_P2;Temp;Humidity;BMP_temperature;BMP_pressure;BME280_temperature;BME280_humidity;BME280_pressure;Samples;Min_cycle;Max_cycle;Signal;HPM_P1;HPM_P2
2022/06/08 00:02:03;;;;;;;9.27;7.63;;;15.40;99.90;;;;;;5005953;28;20486;-78
2022/06/08 00:04:29;;;;;;;9.38;8.23;;;15.40;99.90;;;;;;4992233;28;20040;-78
2022/06/08 00:06:55;;;;;;;10.00;8.70;;;15.30;99.90;;;;;;4996447;28;20030;-79
2022/06/08 00:09:21;;;;;;;11.00;9.73;;;15.20;99.90;;;;;;4997413;28;20466;-78
2022/06/08 00:11:47;;;;;;;10.75;8.70;;;15.20;99.90;;;;;;4989784;28;20037;-78
2022/06/08 00:14:14;;;;;;;9.50;8.65;;;15.10;99.90;;;;;;4997607;28;20031;-78
2022/06/08 00:16:40;;;;;;;11.25;9.02;;;15.00;99.90;;;;;;5006483;28;20129;-84
2022/06/08 00:19:06;;;;;;;10.00;8.90;;;14.90;99.90;;;;;;4974186;28;20491;-78
2022/06/08 00:21:32;;;;;;;10.55;9.45;;;14.80;99.90;;;;;;4989900;28;20040;-77
2022/06/08 00:23:58;;;;;;;9.82;8.85;;;14.80;99.90;;;;;;5006231;28;20037;-78
2022/06/08 00:26:27;;;;;;;8.77;7.88;;;14.80;99.90;;;;;;4994188;28;20747;-78
2022/06/08 00:28:53;;;;;;;8.55;7.00;;;14.80;99.90;;;;;;4996711;28;20101;-79
2022/06/08 00:31:19;;;;;;;7.93;7.13;;;14.80;99.90;;;;;;4991901;28;20121;-78
2022/06/08 00:33:46;;;;;;;8.02;7.22;;;14.90;99.90;;;;;;4993017;28;20189;-78
2022/06/08 00:36:12;;;;;;;8.23;7.50;;;14.90;99.90;;;;;;4980951;28;20137;-78
2022/06/08 00:38:39;;;;;;;8.15;7.18;;;14.80;99.90;;;;;;4996733;28;20063;-78
2022/06/08 00:41:34;;;;;;;8.70;7.80;;;14.80;99.90;;;;;;4977240;28;20030;-77
2022/06/08 00:44:02;;;;;;;8.63;7.40;;;14.70;99.90;;;;;;4997762;28;20437;-77
2022/06/08 00:46:28;;;;;;;7.57;6.78;;;14.80;99.90;;;;;;4973664;28;20052;-77
2022/06/08 00:49:00;;;;;;;8.00;7.20;;;14.80;99.90;;;;;;4996957;28;20034;-78
2022/06/08 00:51:26;;;;;;;8.70;6.85;;;14.90;99.90;;;;;;4988990;28;20054;-78
2022/06/08 00:53:57;;;;;;;8.38;7.57;;;14.90;99.90;;;;;;4980669;28;20750;-77
2022/06/08 00:56:34;;;;;;;8.52;7.72;;;14.90;99.90;;;;;;4980737;28;20190;-78
2022/06/08 00:59:00;;;;;;;8.48;7.57;;;14.90;99.90;;;;;;4992404;28;20667;-78
2022/06/08 01:01:25;;;;;;;8.00;7.20;;;14.90;99.90;;;;;;4992240;28;20601;-80
2022/06/08 01:04:12;;;;;;;9.38;7.60;;;14.90;99.90;;;;;;4996146;28;20038;-77
2022/06/08 01:06:43;;;;;;;8.07;6.88;;;14.90;99.90;;;;;;4994280;28;20025;-78
2022/06/08 01:09:25;;;;;;;8.20;7.38;;;14.90;99.90;;;;;;4975967;28;20042;-76
2022/06/08 01:11:51;;;;;;;8.50;7.13;;;15.00;99.90;;;;;;4990430;28;20026;-77
2022/06/08 01:14:19;;;;;;;8.98;7.22;;;15.00;99.90;;;;;;4998457;28;20436;-78
2022/06/08 01:17:12;;;;;;;8.23;7.15;;;15.00;99.90;;;;;;4976279;28;20508;-78
2022/06/08 01:19:41;;;;;;;9.38;6.93;;;15.00;99.90;;;;;;4990652;28;20379;-78
2022/06/08 01:22:11;;;;;;;7.57;6.80;;;15.00;99.90;;;;;;4990776;28;20096;-78
2022/06/08 01:24:47;;;;;;;7.57;6.85;;;15.00;99.90;;;;;;4982823;28;20052;-78
2022/06/08 01:27:39;;;;;;;8.07;6.45;;;15.00;99.90;;;;;;4974855;28;20032;-77
2022/06/08 01:30:30;;;;;;;8.23;6.95;;;15.00;99.90;;;;;;5006757;28;20045;-77
2022/06/08 01:33:16;;;;;;;7.57;6.43;;;15.00;99.90;;;;;;4995579;28;20061;-77
2022/06/08 01:35:51;;;;;;;7.72;6.43;;;15.00;99.90;;;;;;4974708;28;20073;-78
2022/06/08 01:38:56;;;;;;;8.70;7.13;;;15.00;99.90;;;;;;4996718;28;20053;-78
2022/06/08 01:41:32;;;;;;;8.55;7.10;;;15.00;99.90;;;;;;4992916;28;20606;-77
2022/06/08 01:44:13;;;;;;;8.05;6.50;;;15.00;99.90;;;;;;4990896;28;20033;-77
2022/06/08 01:47:06;;;;;;;7.80;7.00;;;15.00;99.90;;;;;;4988873;28;20073;-77
2022/06/08 01:49:41;;;;;;;7.05;6.35;;;15.00;99.90;;;;;;4975125;28;20042;-78
2022/06/08 01:52:39;;;;;;;7.35;6.50;;;15.00;99.90;;;;;;4993762;28;20469;-78
2022/06/08 01:55:33;;;;;;;6.85;6.10;;;15.00;99.90;;;;;;4974484;28;20030;-77
2022/06/08 01:58:09;;;;;;;7.15;5.78;;;15.00;99.90;;;;;;4995687;28;20053;-77
2022/06/08 02:00:49;;;;;;;7.05;6.35;;;15.10;99.90;;;;;;5006042;28;20034;-77
2022/06/08 02:03:28;;;;;;;;;;;15.00;99.90;;;;;;4979622;28;20116;-78
2022/06/08 02:06:38;;;;;;;5.50;4.88;;;15.00;99.90;;;;;;4991170;28;20300;-77
2022/06/08 02:09:13;;;;;;;6.32;5.72;;;15.00;99.90;;;;;;4954268;28;20070;-78
2022/06/08 02:11:52;;;;;;;7.82;6.38;;;15.00;99.90;;;;;;4939390;28;20697;-78
2022/06/08 02:14:28;;;;;;;7.15;6.45;;;14.90;99.90;;;;;;4937556;28;20124;-78
2022/06/08 02:17:03;;;;;;;8.05;7.13;;;14.80;99.90;;;;;;4937062;28;20565;-78
2022/06/08 02:19:38;;;;;;;8.55;6.68;;;14.90;99.90;;;;;;4938297;28;20026;-77
2022/06/08 02:22:51;;;;;;;8.48;7.57;;;14.80;99.90;;;;;;4940882;28;20262;-79
2022/06/08 02:25:25;;;;;;;7.15;6.45;;;14.90;99.90;;;;;;4918707;29;20519;-77
2022/06/08 02:27:55;;;;;;;7.78;6.85;;;14.90;99.90;;;;;;4936415;29;20043;-77
2022/06/08 02:30:25;;;;;;;8.07;6.43;;;14.90;99.90;;;;;;4905707;29;20035;-78
2022/06/08 02:36:06;;;;;;;6.90;6.20;;;14.90;99.90;;;;;;4920389;29;20694;-77
2022/06/08 02:38:36;;;;;;;7.57;6.53;;;14.90;99.90;;;;;;4925113;29;20035;-77
2022/06/08 02:41:06;;;;;;;9.23;7.47;;;14.90;99.90;;;;;;4941101;28;20487;-77
2022/06/08 02:44:01;;;;;;;7.72;6.90;;;14.80;99.90;;;;;;4948081;28;20113;-78
2022/06/08 02:46:48;;;;;;;7.47;6.15;;;14.80;99.90;;;;;;4958817;28;20356;-78
2022/06/08 02:49:14;;;;;;;7.55;6.72;;;14.70;99.90;;;;;;4942770;28;20098;-77
2022/06/08 02:51:49;;;;;;;7.13;6.07;;;14.60;99.90;;;;;;4927368;28;20550;-78
2022/06/08 02:54:23;;;;;;;9.40;7.10;;;14.50;99.90;;;;;;4943135;28;20526;-79
2022/06/08 02:57:12;;;;;;;7.72;6.38;;;14.50;99.90;;;;;;4987926;28;20046;-78
2022/06/08 02:59:58;;;;;;;7.40;6.70;;;14.50;99.90;;;;;;5000070;28;20358;-78
2022/06/08 03:02:44;;;;;;;8.52;7.63;;;14.40;99.90;;;;;;4998986;28;20034;-77
2022/06/08 03:05:32;;;;;;;7.93;7.13;;;14.30;99.90;;;;;;4980333;28;20030;-85
2022/06/08 03:08:04;;;;;;;7.85;6.65;;;14.30;99.90;;;;;;4994796;28;20390;-77
2022/06/08 03:10:37;;;;;;;9.20;7.20;;;14.30;99.90;;;;;;4993440;28;20077;-79
2022/06/08 03:13:08;;;;;;;7.70;6.60;;;14.30;99.90;;;;;;4995272;28;20065;-79
2022/06/08 03:15:34;;;;;;;7.50;6.70;;;14.20;99.90;;;;;;4998483;28;20050;-77
2022/06/08 03:18:02;;;;;;;8.07;7.25;;;14.20;99.90;;;;;;4982207;28;20048;-77
2022/06/08 03:20:29;;;;;;;9.75;8.32;;;14.20;99.90;;;;;;4977209;28;20069;-77
2022/06/08 03:22:55;;;;;;;9.07;8.02;;;14.20;99.90;;;;;;4974356;28;20478;-77
2022/06/08 03:25:24;;;;;;;9.20;7.90;;;14.20;99.90;;;;;;4999823;28;20026;-77
2022/06/08 03:27:53;;;;;;;10.70;8.80;;;14.20;99.90;;;;;;5004978;28;20497;-77
2022/06/08 03:30:19;;;;;;;9.15;8.25;;;14.20;99.90;;;;;;4977972;28;20030;-76
2022/06/08 03:32:45;;;;;;;10.05;8.80;;;14.20;99.90;;;;;;4998112;28;20489;-77
2022/06/08 03:35:12;;;;;;;10.68;9.57;;;14.20;99.90;;;;;;4982420;28;20108;-77
2022/06/08 03:37:40;;;;;;;10.80;9.38;;;14.20;99.90;;;;;;4993427;28;20041;-77
2022/06/08 03:40:08;;;;;;;10.82;9.50;;;14.20;99.90;;;;;;4977991;28;20037;-77
2022/06/08 03:42:34;;;;;;;11.45;9.73;;;14.20;99.90;;;;;;4992708;28;20405;-78
2022/06/08 03:45:01;;;;;;;11.65;9.93;;;14.30;99.90;;;;;;4998949;28;20517;-77
2022/06/08 03:47:32;;;;;;;10.50;9.40;;;14.30;99.90;;;;;;4989205;28;20034;-77
2022/06/08 03:50:00;;;;;;;12.13;10.18;;;14.40;99.90;;;;;;4992063;28;20026;-77
2022/06/08 03:52:31;;;;;;;10.27;9.15;;;14.40;99.90;;;;;;4976756;28;20394;-78
2022/06/08 03:55:01;;;;;;;12.57;10.75;;;14.50;99.90;;;;;;5007188;28;20425;-78
2022/06/08 03:57:29;;;;;;;12.05;10.75;;;14.50;99.90;;;;;;4989344;28;20045;-78
2022/06/08 03:59:57;;;;;;;10.95;9.85;;;14.50;99.90;;;;;;4976776;28;20042;-77
2022/06/08 04:02:24;;;;;;;12.18;10.88;;;14.50;99.90;;;;;;4994425;28;20042;-78
2022/06/08 04:04:50;;;;;;;12.18;10.95;;;14.60;99.90;;;;;;4991088;28;20359;-78
2022/06/08 04:07:16;;;;;;;11.18;10.02;;;14.50;99.90;;;;;;4991177;28;20033;-78
2022/06/08 04:09:46;;;;;;;12.85;10.73;;;14.60;99.90;;;;;;4978765;28;20094;-78
2022/06/08 04:12:12;;;;;;;11.93;10.50;;;14.60;99.90;;;;;;4990608;28;20478;-86
2022/06/08 04:14:38;;;;;;;15.15;13.25;;;14.60;99.90;;;;;;4991716;28;20482;-78
2022/06/08 04:17:08;;;;;;;13.23;11.85;;;14.60;99.90;;;;;;4978424;28;20038;-77
2022/06/08 04:19:35;;;;;;;13.30;11.75;;;14.60;99.90;;;;;;4993159;28;20129;-77
2022/06/08 04:22:01;;;;;;;14.50;12.50;;;14.60;99.90;;;;;;4991016;28;20109;-77
2022/06/08 04:24:28;;;;;;;14.15;12.43;;;14.60;99.90;;;;;;4980878;28;20534;-78
2022/06/08 04:26:57;;;;;;;12.27;10.98;;;14.60;99.90;;;;;;4995784;28;20025;-77
2022/06/08 04:29:31;;;;;;;13.52;11.75;;;14.70;99.90;;;;;;4991146;28;20032;-77
2022/06/08 04:32:00;;;;;;;12.68;11.38;;;14.60;99.90;;;;;;4990450;28;20100;-78
2022/06/08 04:34:28;;;;;;;16.13;14.23;;;14.60;99.90;;;;;;4988357;28;20397;-79
2022/06/08 04:36:54;;;;;;;15.75;13.98;;;14.70;99.90;;;;;;4974419;28;20043;-78
2022/06/08 04:39:23;;;;;;;14.88;12.68;;;14.60;99.90;;;;;;4992820;28;20033;-77
2022/06/08 04:42:00;;;;;;;12.18;10.57;;;14.70;99.90;;;;;;4988967;28;20145;-78
2022/06/08 04:44:32;;;;;;;12.32;10.55;;;14.70;99.90;;;;;;5006223;28;20038;-78
2022/06/08 04:47:01;;;;;;;11.35;10.18;;;14.70;99.90;;;;;;4992277;28;20634;-78
2022/06/08 04:49:27;;;;;;;11.25;9.88;;;14.70;99.90;;;;;;4991629;28;20085;-78
2022/06/08 04:51:52;;;;;;;10.32;8.88;;;14.80;99.90;;;;;;4976440;28;20485;-77
2022/06/08 04:54:20;;;;;;;13.60;12.13;;;14.90;99.90;;;;;;4993149;28;20396;-77
2022/06/08 04:56:47;;;;;;;12.38;11.10;;;15.00;99.90;;;;;;4987297;28;20044;-78
2022/06/08 04:59:13;;;;;;;10.05;8.93;;;15.20;99.90;;;;;;5005289;28;20029;-77
2022/06/08 05:01:44;;;;;;;12.80;10.65;;;15.40;99.90;;;;;;4975743;28;20048;-77
2022/06/08 05:04:12;;;;;;;8.73;7.40;;;15.60;99.90;;;;;;4973751;28;20617;-85
2022/06/08 05:06:38;;;;;;;10.13;8.90;;;15.80;99.90;;;;;;4991251;28;20034;-78
2022/06/08 05:09:04;;;;;;;10.77;8.63;;;15.80;99.90;;;;;;4975948;28;20037;-77
2022/06/08 05:11:35;;;;;;;10.60;8.10;;;15.80;99.90;;;;;;4978717;28;20029;-77
2022/06/08 05:14:02;;;;;;;10.35;8.05;;;15.70;99.90;;;;;;5000420;28;20390;-77
2022/06/08 05:16:28;;;;;;;10.15;7.75;;;15.70;99.90;;;;;;4990349;28;20033;-78
2022/06/08 05:18:56;;;;;;;7.78;6.65;;;15.70;99.90;;;;;;4987460;28;20041;-77
2022/06/08 05:21:22;;;;;;;6.40;5.32;;;15.80;99.90;;;;;;4990021;28;20017;-77
2022/06/08 05:23:50;;;;;;;7.88;6.43;;;16.00;99.90;;;;;;4972919;28;20034;-77
2022/06/08 05:26:21;;;;;;;6.32;5.15;;;16.20;99.90;;;;;;4995087;28;20026;-77
2022/06/08 05:28:47;;;;;;;9.73;6.63;;;16.50;99.90;;;;;;4974201;28;20071;-76
2022/06/08 05:31:13;;;;;;;9.10;6.63;;;16.60;99.90;;;;;;4988995;28;20041;-78
2022/06/08 05:33:41;;;;;;;6.78;6.07;;;16.70;99.90;;;;;;4994373;28;20049;-77
2022/06/08 05:36:13;;;;;;;7.95;5.53;;;16.80;99.90;;;;;;4988328;28;20567;-78
2022/06/08 05:38:39;;;;;;;4.90;4.38;;;17.00;99.90;;;;;;5004025;28;20064;-78
2022/06/08 05:41:06;;;;;;;5.47;4.97;;;17.10;99.90;;;;;;5003761;28;20038;-78
2022/06/08 05:43:34;;;;;;;4.38;3.78;;;17.00;99.90;;;;;;4978082;28;20549;-78
2022/06/08 05:46:01;;;;;;;5.75;4.35;;;17.10;99.90;;;;;;4994225;28;20339;-77
2022/06/08 05:48:27;;;;;;;6.72;4.05;;;17.10;99.90;;;;;;4975785;28;20042;-77
2022/06/08 05:50:53;;;;;;;4.80;3.97;;;17.20;99.90;;;;;;4992133;28;20065;-77
2022/06/08 05:53:23;;;;;;;5.32;3.90;;;17.20;99.90;;;;;;4978004;28;20536;-80
2022/06/08 05:55:49;;;;;;;4.93;3.85;;;17.30;99.90;;;;;;4973470;28;20092;-77
2022/06/08 05:58:14;;;;;;;4.97;4.22;;;17.30;99.90;;;;;;4973593;28;20035;-77
2022/06/08 06:00:43;;;;;;;6.65;4.28;;;17.10;99.90;;;;;;4978980;28;20064;-77
2022/06/08 06:03:13;;;;;;;3.75;3.38;;;17.20;99.90;;;;;;4999748;28;20101;-79
2022/06/08 06:05:41;;;;;;;4.35;3.67;;;17.20;99.90;;;;;;5005441;28;20031;-78
2022/06/08 06:08:11;;;;;;;5.43;3.95;;;17.30;99.90;;;;;;4990773;28;20109;-77
2022/06/08 06:10:44;;;;;;;3.72;3.22;;;17.40;99.90;;;;;;4993270;28;20426;-77
2022/06/08 06:13:12;;;;;;;4.65;3.25;;;17.50;99.90;;;;;;4998705;28;20049;-78
2022/06/08 06:15:42;;;;;;;5.40;4.50;;;17.60;99.90;;;;;;4993426;28;20019;-78
2022/06/08 06:18:08;;;;;;;6.00;3.78;;;17.50;99.90;;;;;;4996467;28;20133;-78
2022/06/08 06:20:36;;;;;;;5.25;3.95;;;17.50;99.90;;;;;;4986982;28;20068;-78
2022/06/08 06:23:14;;;;;;;4.40;3.70;;;17.50;99.90;;;;;;4980005;28;20030;-77
2022/06/08 06:26:09;;;;;;;3.78;3.08;;;17.60;99.90;;;;;;4992111;28;20030;-78
2022/06/08 06:28:49;;;;;;;3.40;2.72;;;17.50;99.90;;;;;;4984210;28;20034;-78
2022/06/08 06:31:43;;;;;;;4.05;3.05;;;17.60;99.90;;;;;;4991378;28;20038;-77
2022/06/08 06:34:15;;;;;;;3.75;3.28;;;17.70;99.90;;;;;;4997715;28;20406;-77
2022/06/08 06:36:42;;;;;;;3.70;2.58;;;17.70;99.90;;;;;;5007797;28;20102;-78
2022/06/08 06:39:08;;;;;;;3.30;2.35;;;17.80;99.90;;;;;;4976263;28;20034;-78
2022/06/08 06:41:38;;;;;;;4.32;3.20;;;17.90;99.90;;;;;;4978892;28;20096;-78
2022/06/08 06:44:05;;;;;;;4.65;2.47;;;17.90;99.90;;;;;;4979266;28;20446;-78
2022/06/08 06:46:35;;;;;;;3.00;1.77;;;17.90;99.90;;;;;;4977187;28;20022;-77
2022/06/08 06:49:05;;;;;;;2.58;1.90;;;18.00;99.90;;;;;;4976590;28;20022;-77
2022/06/08 06:51:34;;;;;;;3.47;1.65;;;18.10;99.90;;;;;;4997316;28;20269;-77
2022/06/08 06:54:01;;;;;;;2.80;2.00;;;18.10;99.90;;;;;;4990828;28;20037;-78
2022/06/08 06:56:27;;;;;;;2.83;1.60;;;18.20;99.90;;;;;;5008793;28;20068;-78
2022/06/08 06:59:02;;;;;;;2.22;1.20;;;18.30;99.90;;;;;;4981939;28;20033;-77
2022/06/08 07:01:30;;;;;;;3.10;1.92;;;18.40;99.90;;;;;;4984084;28;20042;-77
2022/06/08 07:03:57;;;;;;;3.70;2.15;;;18.40;99.90;;;;;;4976118;28;20031;-78
2022/06/08 07:06:23;;;;;;;2.45;1.50;;;18.40;99.90;;;;;;5007885;28;20077;-77
2022/06/08 07:08:50;;;;;;;1.77;1.02;;;18.50;99.90;;;;;;4993247;28;20129;-78
2022/06/08 07:11:35;;;;;;;2.25;1.38;;;18.60;99.90;;;;;;5009038;28;20037;-78
2022/06/08 07:14:23;;;;;;;2.65;1.00;;;18.70;99.90;;;;;;4993510;28;20080;-78
2022/06/08 07:17:01;;;;;;;2.58;1.20;;;18.80;99.90;;;;;;4998739;28;21120;-77
2022/06/08 07:19:30;;;;;;;3.08;1.45;;;18.90;99.90;;;;;;4991975;28;20030;-77
2022/06/08 07:21:56;;;;;;;2.92;1.23;;;18.90;99.90;;;;;;4972986;28;20068;-77
2022/06/08 07:24:32;;;;;;;2.13;1.00;;;18.80;99.90;;;;;;4997891;28;20041;-78
2022/06/08 07:27:00;;;;;;;1.80;0.90;;;18.80;99.90;;;;;;4993843;28;20046;-77
2022/06/08 07:29:25;;;;;;;2.28;0.82;;;18.70;99.90;;;;;;5006149;28;20574;-78
2022/06/08 07:31:52;;;;;;;1.80;0.80;;;18.80;99.90;;;;;;4997221;28;20112;-78
2022/06/08 07:34:17;;;;;;;1.42;0.50;;;18.80;99.90;;;;;;4981119;28;20144;-78
2022/06/08 07:36:47;;;;;;;2.25;0.80;;;18.80;99.90;;;;;;5009786;28;20062;-77
2022/06/08 07:39:15;;;;;;;2.67;0.60;;;18.80;99.90;;;;;;5001507;28;20437;-78
2022/06/08 07:41:42;;;;;;;3.42;0.70;;;19.00;99.90;;;;;;5016063;28;20490;-78
2022/06/08 07:44:08;;;;;;;2.40;0.60;;;19.10;99.90;;;;;;4999265;28;20127;-82
2022/06/08 07:46:34;;;;;;;2.20;0.55;;;19.30;99.90;;;;;;5011630;28;20041;-78
2022/06/08 07:51:44;;;;;;;2.03;1.10;;;19.30;99.90;;;;;;5010590;28;20051;-78
2022/06/08 07:54:10;;;;;;;1.55;0.75;;;18.90;99.90;;;;;;4993433;28;20640;-78
2022/06/08 07:56:36;;;;;;;2.33;0.50;;;19.00;99.90;;;;;;5015799;28;20048;-79
2022/06/08 07:59:03;;;;;;;1.67;0.65;;;19.10;99.90;;;;;;5024745;28;20098;-78
2022/06/08 08:01:29;;;;;;;1.02;0.40;;;19.10;99.90;;;;;;5009790;28;20557;-78
2022/06/08 08:03:55;;;;;;;1.02;0.40;;;19.40;99.90;;;;;;5026971;28;20040;-78
2022/06/08 08:06:21;;;;;;;0.93;0.40;;;19.50;99.90;;;;;;5009723;28;20034;-78
2022/06/08 08:08:47;;;;;;;0.80;0.30;;;19.90;99.90;;;;;;5014785;28;20021;-78
2022/06/08 08:11:13;;;;;;;3.55;0.50;;;20.80;99.90;;;;;;5015304;28;20044;-78
2022/06/08 08:13:38;;;;;;;1.42;0.45;;;20.70;99.90;;;;;;5011373;28;20091;-78
2022/06/08 08:16:05;;;;;;;1.77;0.40;;;21.10;99.90;;;;;;5015087;28;20107;-78
2022/06/08 08:18:31;;;;;;;0.80;0.35;;;21.00;99.90;;;;;;5011050;28;20038;-78
2022/06/08 08:20:57;;;;;;;1.33;0.30;;;21.20;99.90;;;;;;5000114;28;20084;-77
2022/06/08 08:23:22;;;;;;;1.60;0.30;;;21.40;99.90;;;;;;5015751;28;20560;-77
2022/06/08 08:25:49;;;;;;;0.82;0.30;;;21.50;99.90;;;;;;5014440;28;20028;-78
2022/06/08 08:28:14;;;;;;;1.17;0.40;;;21.40;99.90;;;;;;5015306;28;20034;-78
2022/06/08 08:30:40;;;;;;;0.88;0.40;;;21.20;99.90;;;;;;5015843;28;20037;-79
2022/06/08 08:33:06;;;;;;;1.45;0.30;;;20.80;99.90;;;;;;5015055;28;20025;-80
2022/06/08 08:35:31;;;;;;;1.23;0.30;;;21.50;99.90;;;;;;5015299;28;20125;-83
2022/06/08 08:37:58;;;;;;;1.77;0.30;;;22.10;99.90;;;;;;5014558;28;20034;-78
2022/06/08 08:40:44;;;;;;;1.23;0.30;;;22.20;99.90;;;;;;5010379;28;20061;-78
2022/06/08 08:43:13;;;;;;;3.45;0.30;;;22.20;99.90;;;;;;5015919;28;20304;-78
2022/06/08 08:45:56;;;;;;;1.10;0.20;;;22.30;99.90;;;;;;5010391;28;20033;-78
2022/06/08 08:48:35;;;;;;;1.48;0.40;;;22.80;99.90;;;;;;5008956;28;20120;-80
2022/06/08 08:51:17;;;;;;;0.75;0.30;;;23.20;99.90;;;;;;5010622;28;20084;-79
2022/06/08 08:53:45;;;;;;;0.85;0.30;;;23.40;99.90;;;;;;5015448;28;20037;-78
2022/06/08 08:56:14;;;;;;;;;;;23.70;99.90;;;;;;5010024;28;20133;-77
2022/06/08 08:58:44;;;;;;;0.82;0.28;;;23.50;99.90;;;;;;5009935;28;19943;-78
2022/06/08 09:01:33;;;;;;;1.27;0.30;;;23.30;99.90;;;;;;5010300;28;20044;-78
2022/06/08 09:04:05;;;;;;;1.67;0.20;;;22.70;99.90;;;;;;5009015;28;20124;-79
2022/06/08 09:06:33;;;;;;;0.57;0.30;;;22.60;99.90;;;;;;5010859;28;20021;-87
2022/06/08 09:09:02;;;;;;;0.95;0.40;;;22.40;99.90;;;;;;5008947;28;20060;-79
2022/06/08 09:11:35;;;;;;;1.75;0.30;;;22.10;99.90;;;;;;4992777;28;20034;-79
2022/06/08 09:14:14;;;;;;;1.75;0.30;;;22.00;99.90;;;;;;5014017;28;20028;-80
2022/06/08 09:16:43;;;;;;;0.80;0.22;;;22.40;99.90;;;;;;5024882;28;20057;-78
2022/06/08 09:19:21;;;;;;;0.85;0.30;;;22.00;99.90;;;;;;5007499;28;20081;-81
2022/06/08 09:21:53;;;;;;;2.47;0.30;;;22.20;99.90;;;;;;5013896;28;20044;-79
2022/06/08 09:24:35;;;;;;;2.28;0.40;;;22.10;99.90;;;;;;4995324;28;20037;-78
2022/06/08 09:27:27;;;;;;;0.98;0.30;;;21.90;99.90;;;;;;5009830;28;20026;-78
2022/06/08 09:29:53;;;;;;;1.95;0.30;;;21.50;99.90;;;;;;5009553;28;20033;-78
2022/06/08 09:32:44;;;;;;;0.77;0.30;;;21.60;99.90;;;;;;4992124;28;20138;-78
2022/06/08 09:35:16;;;;;;;1.70;0.20;;;21.70;99.90;;;;;;5009981;28;20060;-78
2022/06/08 09:37:43;;;;;;;1.42;0.28;;;21.50;99.90;;;;;;5008489;28;20037;-78
2022/06/08 09:40:36;;;;;;;2.08;0.40;;;21.50;99.90;;;;;;4998158;28;20040;-79
2022/06/08 09:43:24;;;;;;;1.77;0.40;;;21.10;99.90;;;;;;5008007;28;20038;-77
2022/06/08 09:45:55;;;;;;;2.55;0.40;;;21.10;99.90;;;;;;5023702;28;20022;-78
2022/06/08 09:51:35;;;;;;;1.33;0.40;;;21.50;99.90;;;;;;5008423;28;20499;-81
2022/06/08 09:54:32;;;;;;;3.10;0.40;;;21.60;99.90;;;;;;4998891;28;20033;-78
2022/06/08 09:57:17;;;;;;;3.47;0.47;;;21.50;99.90;;;;;;4998143;28;20022;-77
2022/06/08 10:00:02;;;;;;;2.00;0.30;;;21.90;99.90;;;;;;5007818;28;20045;-78
2022/06/08 10:02:39;;;;;;;2.95;0.60;;;22.50;99.90;;;;;;4999213;28;20037;-78
2022/06/08 10:05:43;;;;;;;1.77;0.50;;;21.80;99.90;;;;;;5023325;28;20053;-79
2022/06/08 10:08:19;;;;;;;1.52;0.35;;;22.00;99.90;;;;;;5007437;28;20062;-79
2022/06/08 10:10:58;;;;;;;2.42;0.40;;;22.20;99.90;;;;;;5010357;28;20132;-84
2022/06/08 10:13:34;;;;;;;2.55;0.40;;;22.10;99.90;;;;;;4991134;28;20068;-78
2022/06/08 10:16:22;;;;;;;2.95;0.40;;;21.80;99.90;;;;;;5012296;28;20030;-79
2022/06/08 10:18:55;;;;;;;2.72;0.47;;;21.80;99.90;;;;;;4993489;28;20076;-78
2022/06/08 10:21:40;;;;;;;1.45;0.30;;;21.70;99.90;;;;;;5008867;28;20033;-78
2022/06/08 10:24:11;;;;;;;3.17;0.50;;;21.60;99.90;;;;;;5008462;28;20117;-79
2022/06/08 10:26:45;;;;;;;1.40;0.40;;;21.40;99.90;;;;;;5008689;28;20422;-78
2022/06/08 10:29:14;;;;;;;3.30;0.40;;;21.40;99.90;;;;;;4993779;28;20041;-79
2022/06/08 10:31:49;;;;;;;2.05;0.50;;;21.30;99.90;;;;;;5007835;28;20070;-78
2022/06/08 10:34:24;;;;;;;2.50;0.40;;;21.10;99.90;;;;;;5009733;28;20033;-79
2022/06/08 10:36:58;;;;;;;3.22;0.43;;;21.30;99.90;;;;;;4988119;28;20046;-78
2022/06/08 10:39:27;;;;;;;1.33;0.40;;;21.20;99.90;;;;;;5005557;28;20029;-78
2022/06/08 10:44:59;;;;;;;2.63;0.40;;;21.40;99.90;;;;;;5011941;28;20389;-78
2022/06/08 10:47:31;;;;;;;2.57;0.40;;;21.20;99.90;;;;;;5012290;28;20528;-78
2022/06/08 10:50:00;;;;;;;2.72;0.40;;;20.80;99.90;;;;;;5005176;28;20401;-78
2022/06/08 10:52:47;;;;;;;2.40;0.40;;;21.50;99.90;;;;;;5010378;28;20438;-78
2022/06/08 10:55:14;;;;;;;2.17;0.30;;;22.20;99.90;;;;;;5011562;28;20021;-78
2022/06/08 10:57:52;;;;;;;1.50;0.30;;;22.10;99.90;;;;;;5007386;28;20072;-78
2022/06/08 11:00:24;;;;;;;2.97;0.65;;;21.70;99.90;;;;;;5000631;28;20719;-79
2022/06/08 11:02:59;;;;;;;3.90;0.50;;;21.60;99.90;;;;;;5009471;28;20056;-78
2022/06/08 11:05:40;;;;;;;2.20;0.40;;;20.80;99.90;;;;;;5008185;28;20057;-78
2022/06/08 11:08:16;;;;;;;4.65;0.70;;;21.60;99.90;;;;;;5009180;28;20355;-78
2022/06/08 11:10:41;;;;;;;2.60;0.70;;;21.40;99.90;;;;;;5014823;28;20030;-79
2022/06/08 11:13:24;;;;;;;2.45;0.50;;;20.80;99.90;;;;;;4993673;28;20261;-79
2022/06/08 11:15:53;;;;;;;2.65;0.50;;;20.60;99.90;;;;;;4999824;28;20141;-77
2022/06/08 11:18:25;;;;;;;3.80;0.40;;;20.20;99.90;;;;;;4994590;28;20033;-78
2022/06/08 11:21:13;;;;;;;3.78;0.40;;;19.20;99.90;;;;;;5026433;28;20124;-78
2022/06/08 11:24:17;;;;;;;3.40;0.60;;;18.80;99.90;;;;;;5016489;28;20040;-79
2022/06/08 11:27:01;;;;;;;4.22;0.70;;;18.60;99.90;;;;;;5011912;28;20496;-78
2022/06/08 11:29:29;;;;;;;4.57;0.40;;;18.40;99.90;;;;;;5017740;28;20037;-79
2022/06/08 11:31:56;;;;;;;5.13;0.57;;;18.40;99.90;;;;;;4998661;28;20032;-79
2022/06/08 11:34:22;;;;;;;3.08;0.55;;;18.20;99.90;;;;;;4994075;28;20038;-78
2022/06/08 11:37:23;;;;;;;3.97;0.60;;;18.10;99.90;;;;;;5010382;28;20065;-78
2022/06/08 11:39:51;;;;;;;5.43;0.50;;;18.20;99.90;;;;;;4959066;28;20383;-78
2022/06/08 11:42:37;;;;;;;3.42;0.40;;;18.30;99.90;;;;;;4964028;28;20133;-78
2022/06/08 11:45:21;;;;;;;4.25;0.40;;;18.40;99.90;;;;;;4974242;28;20086;-78
2022/06/08 11:47:59;;;;;;;3.03;0.50;;;18.30;99.90;;;;;;4975091;28;20402;-78
2022/06/08 11:50:30;;;;;;;3.03;0.40;;;18.30;99.90;;;;;;4975318;28;20046;-78
2022/06/08 11:53:01;;;;;;;4.78;0.38;;;18.30;99.90;;;;;;4958088;28;20022;-78
2022/06/08 11:55:29;;;;;;;4.25;0.77;;;18.60;99.90;;;;;;4973755;28;20070;-78
2022/06/08 11:58:04;;;;;;;4.40;0.30;;;18.40;99.90;;;;;;4974507;28;20125;-78
2022/06/08 12:00:35;;;;;;;1.95;0.30;;;18.30;99.90;;;;;;4958786;28;20398;-78
2022/06/08 12:03:15;;;;;;;5.22;0.40;;;18.50;99.90;;;;;;4958022;28;20043;-78
2022/06/08 12:05:41;;;;;;;2.72;0.20;;;18.40;99.90;;;;;;4954533;28;20127;-78
2022/06/08 12:08:12;;;;;;;1.08;0.20;;;18.60;99.90;;;;;;4973102;28;20047;-78
2022/06/08 12:10:38;;;;;;;2.72;0.40;;;18.70;99.90;;;;;;4974056;28;20406;-78
2022/06/08 12:13:13;;;;;;;1.95;0.40;;;18.90;99.90;;;;;;4958147;28;20046;-79
2022/06/08 12:15:48;;;;;;;4.10;0.50;;;18.40;99.90;;;;;;4994921;28;20052;-79
2022/06/08 12:18:23;;;;;;;3.17;0.30;;;18.20;99.90;;;;;;4993119;28;20038;-78
2022/06/08 12:21:00;;;;;;;1.55;0.30;;;18.90;99.90;;;;;;5014970;28;20528;-78
2022/06/08 12:23:59;;;;;;;1.30;0.30;;;19.00;99.90;;;;;;5010913;28;20029;-78
2022/06/08 12:26:35;;;;;;;1.30;0.30;;;19.30;99.90;;;;;;4993882;28;20091;-79
2022/06/08 12:29:21;;;;;;;0.93;0.20;;;19.50;99.90;;;;;;5009296;28;20060;-78
2022/06/08 12:31:57;;;;;;;2.35;0.30;;;18.90;99.90;;;;;;4980049;28;20424;-79
2022/06/08 12:34:40;;;;;;;2.88;0.30;;;18.80;99.90;;;;;;5017516;28;20421;-79
2022/06/08 12:37:32;;;;;;;1.48;0.22;;;18.50;99.90;;;;;;5009017;28;20056;-78
2022/06/08 12:40:24;;;;;;;1.58;0.20;;;18.50;99.90;;;;;;5008847;28;20271;-77
2022/06/08 12:43:00;;;;;;;1.10;0.30;;;18.60;99.90;;;;;;5005515;28;20076;-77
2022/06/08 12:45:37;;;;;;;1.48;0.40;;;18.50;99.90;;;;;;5008737;28;20029;-78
2022/06/08 12:48:40;;;;;;;1.45;0.28;;;18.40;99.90;;;;;;4996063;28;20497;-78
2022/06/08 12:51:32;;;;;;;1.45;0.20;;;18.40;99.90;;;;;;5009894;28;20112;-78
2022/06/08 12:54:01;;;;;;;0.90;0.20;;;18.20;99.90;;;;;;4995831;28;20034;-78
2022/06/08 12:56:27;;;;;;;1.08;0.20;;;18.00;99.90;;;;;;5009322;28;20041;-78
2022/06/08 12:58:54;;;;;;;2.05;0.20;;;18.20;99.90;;;;;;4991493;28;20041;-79
2022/06/08 13:01:21;;;;;;;1.02;0.20;;;18.20;99.90;;;;;;5001745;28;20148;-78
2022/06/08 13:03:48;;;;;;;0.63;0.20;;;18.00;99.90;;;;;;5012034;28;20033;-79
2022/06/08 13:06:13;;;;;;;1.50;0.20;;;18.10;99.90;;;;;;5006048;28;20084;-78
2022/06/08 13:08:39;;;;;;;2.13;0.30;;;17.90;99.90;;;;;;4989773;28;20037;-78
2022/06/08 13:11:14;;;;;;;2.50;0.20;;;17.90;99.90;;;;;;4995758;28;20033;-79
2022/06/08 13:13:40;;;;;;;1.08;0.25;;;18.00;99.90;;;;;;4992419;28;20036;-79
2022/06/08 13:16:21;;;;;;;1.00;0.20;;;18.00;99.90;;;;;;5022490;28;20030;-80
2022/06/08 13:18:48;;;;;;;1.70;0.28;;;18.10;99.90;;;;;;5023564;28;22050;-78
2022/06/08 13:21:14;;;;;;;1.95;0.20;;;18.10;99.90;;;;;;5025038;28;20405;-79
2022/06/08 13:23:40;;;;;;;2.17;0.30;;;18.10;99.90;;;;;;4997712;28;20029;-77
2022/06/08 13:26:27;;;;;;;1.02;0.20;;;17.70;99.90;;;;;;5009395;28;20040;-79
2022/06/08 13:28:54;;;;;;;1.35;0.20;;;17.80;99.90;;;;;;5011329;28;20061;-79